createdAt,value
2018-10-16T00:03:33.418Z,9.00
2018-10-16T00:13:32.029Z,7.40
2018-10-16T00:23:33.347Z,8.37
2018-10-16T00:33:34.293Z,8.17
2018-10-16T00:43:22.219Z,9.47
2018-10-16T00:45:25.153Z,9.57
2018-10-16T00:47:28.068Z,9.37
2018-10-16T00:49:31.847Z,10.10
2018-10-16T00:51:35.521Z,10.23
2018-10-16T00:53:38.522Z,9.37
2018-10-16T00:55:41.434Z,11.10
2018-10-16T00:57:45.114Z,10.23
2018-10-16T00:59:48.097Z,9.60
2018-10-16T01:01:51.898Z,9.23
2018-10-16T01:03:55.552Z,10.40
2018-10-16T01:05:58.449Z,10.03
2018-10-16T01:08:01.353Z,9.70
2018-10-16T01:10:04.287Z,10.30
2018-10-16T01:12:07.929Z,9.50
2018-10-16T01:14:10.829Z,9.30
2018-10-16T01:16:14.513Z,9.20
2018-10-16T01:18:17.419Z,10.50
2018-10-16T01:20:21.101Z,8.50
2018-10-16T01:22:25.502Z,9.17
2018-10-16T01:24:28.389Z,8.00
2018-10-16T01:26:31.379Z,9.07
2018-10-16T01:28:34.268Z,9.80
2018-10-16T01:30:37.146Z,9.03
2018-10-16T01:32:41.067Z,7.50
2018-10-16T01:34:44.718Z,8.40
2018-10-16T01:36:47.601Z,7.70
2018-10-16T01:38:50.523Z,9.00
2018-10-16T01:40:54.910Z,8.73
2018-10-16T01:42:57.797Z,8.20
2018-10-16T01:45:00.844Z,9.40
2018-10-16T01:47:04.186Z,9.13
2018-10-16T01:49:08.158Z,8.50
2018-10-16T01:51:11.049Z,9.07
2018-10-16T01:53:13.945Z,8.60
2018-10-16T01:55:16.883Z,9.70
2018-10-16T01:57:20.546Z,9.27
2018-10-16T01:59:24.197Z,9.10
2018-10-16T02:01:27.099Z,9.13
2018-10-16T02:03:30.219Z,9.47
2018-10-16T02:05:33.873Z,9.33
2018-10-16T02:07:36.805Z,9.70
2018-10-16T02:09:39.708Z,8.40
2018-10-16T02:11:43.429Z,8.70
2018-10-16T02:13:47.416Z,9.20
2018-10-16T02:15:50.378Z,9.87
2018-10-16T02:17:54.034Z,8.60
2018-10-16T02:19:56.935Z,9.03
2018-10-16T02:22:01.201Z,8.60
2018-10-16T02:24:04.081Z,8.60
2018-10-16T02:26:07.521Z,8.33
2018-10-16T02:28:11.326Z,9.30
2018-10-16T02:30:15.623Z,9.00
2018-10-16T02:32:18.515Z,7.70
2018-10-16T02:34:21.497Z,9.43
2018-10-16T02:36:25.172Z,8.37
2018-10-16T02:38:28.093Z,8.23
2018-10-16T02:40:31.882Z,7.60
2018-10-16T02:42:34.792Z,8.80
2018-10-16T02:44:38.463Z,8.40
2018-10-16T02:46:42.163Z,8.67
2018-10-16T02:48:45.045Z,7.60
2018-10-16T02:50:48.030Z,8.32
2018-10-16T02:52:51.709Z,7.37
2018-10-16T02:54:54.600Z,7.23
2018-10-16T02:56:59.006Z,8.10
2018-10-16T02:59:07.876Z,8.33
2018-10-16T03:01:11.023Z,9.10
2018-10-16T03:03:13.949Z,8.67
2018-10-16T03:05:17.717Z,8.00
2018-10-16T03:07:20.594Z,8.93
2018-10-16T03:09:24.580Z,9.10
2018-10-16T03:11:27.586Z,8.00
2018-10-16T03:13:31.268Z,8.80
2018-10-16T03:15:34.162Z,9.13
2018-10-16T03:17:37.183Z,9.53
2018-10-16T03:19:40.849Z,8.07
2018-10-16T03:21:45.987Z,8.90
2018-10-16T03:23:49.785Z,8.60
2018-10-16T03:25:53.478Z,8.73
2018-10-16T03:27:56.367Z,8.33
2018-10-16T03:29:59.483Z,8.30
2018-10-16T03:32:03.122Z,8.10
2018-10-16T03:34:06.026Z,9.27
2018-10-16T03:36:09.148Z,8.63
2018-10-16T03:38:13.397Z,8.47
2018-10-16T03:40:16.278Z,8.00
2018-10-16T03:42:19.204Z,8.77
2018-10-16T03:44:22.853Z,8.00
2018-10-16T03:46:26.114Z,8.10
2018-10-16T03:48:29.787Z,8.37
2018-10-16T03:50:34.142Z,6.80
2018-10-16T03:52:37.025Z,8.33
2018-10-16T03:54:40.336Z,8.67
2018-10-16T03:56:43.229Z,9.10
2018-10-16T03:58:46.112Z,8.20
2018-10-16T04:00:49.047Z,8.90
2018-10-16T04:02:52.706Z,8.60
2018-10-16T04:04:55.694Z,8.13
2018-10-16T04:06:59.395Z,9.60
2018-10-16T04:09:03.116Z,9.07
2018-10-16T04:11:06.417Z,9.50
2018-10-16T04:13:10.101Z,8.60
2018-10-16T04:15:13.816Z,8.87
2018-10-16T04:17:17.472Z,8.50
2018-10-16T04:19:20.497Z,7.67
2018-10-16T04:21:24.138Z,9.00
2018-10-16T04:23:27.034Z,9.10
2018-10-16T04:25:29.938Z,9.20
2018-10-16T04:27:33.814Z,9.10
2018-10-16T04:29:36.705Z,9.30
2018-10-16T04:31:39.624Z,9.13
2018-10-16T04:33:42.573Z,8.63
2018-10-16T04:35:47.372Z,8.97
2018-10-16T04:37:50.392Z,8.80
2018-10-16T04:39:54.057Z,8.87
2018-10-16T04:41:57.099Z,9.45
2018-10-16T04:44:00.866Z,8.20
2018-10-16T04:46:04.922Z,8.90
2018-10-16T04:48:07.814Z,8.70
2018-10-16T04:50:10.875Z,9.60
2018-10-16T04:52:14.520Z,9.73
2018-10-16T04:54:18.480Z,10.00
2018-10-16T04:56:22.149Z,10.03
2018-10-16T04:58:25.800Z,8.93
2018-10-16T05:00:28.802Z,8.10
2018-10-16T05:02:31.731Z,9.20
2018-10-16T05:04:35.386Z,8.67
2018-10-16T05:06:38.278Z,8.17
2018-10-16T05:08:41.269Z,8.80
2018-10-16T05:10:44.254Z,9.77
2018-10-16T05:12:47.133Z,9.10
2018-10-16T05:14:50.973Z,9.93
2018-10-16T05:16:53.896Z,10.83
2018-10-16T05:18:56.864Z,11.40
2018-10-16T05:21:00.479Z,10.70
2018-10-16T05:23:03.347Z,10.60
2018-10-16T05:25:06.298Z,11.20
2018-10-16T05:27:10.193Z,9.80
2018-10-16T05:29:13.151Z,10.50
2018-10-16T05:31:17.690Z,9.27
2018-10-16T05:33:20.476Z,10.20
2018-10-16T05:35:24.123Z,9.67
2018-10-16T05:37:27.002Z,9.70
2018-10-16T05:39:30.291Z,9.60
2018-10-16T05:41:33.177Z,9.40
2018-10-16T05:43:36.073Z,12.07
2018-10-16T05:45:39.745Z,10.37
2018-10-16T05:47:43.305Z,9.70
2018-10-16T05:49:46.945Z,9.80
2018-10-16T05:51:49.866Z,8.73
2018-10-16T05:53:52.838Z,9.33
2018-10-16T05:55:57.245Z,9.83
2018-10-16T05:58:00.167Z,9.90
2018-10-16T06:00:19.734Z,10.10
2018-10-16T06:02:23.402Z,9.53
2018-10-16T06:04:26.373Z,9.97
2018-10-16T06:06:29.250Z,10.10
2018-10-16T06:08:32.150Z,9.60
2018-10-16T06:10:35.891Z,10.03
2018-10-16T06:12:38.782Z,10.67
2018-10-16T06:14:41.674Z,9.07
2018-10-16T06:16:44.879Z,10.10
2018-10-16T06:18:47.766Z,9.70
2018-10-16T06:20:50.683Z,10.40
2018-10-16T06:22:55.287Z,9.87
2018-10-16T06:24:59.023Z,10.50
2018-10-16T06:27:01.906Z,9.00
2018-10-16T06:29:04.854Z,8.50
2018-10-16T06:31:08.567Z,8.37
2018-10-16T06:33:12.339Z,9.83
2018-10-16T06:35:15.738Z,9.57
2018-10-16T06:37:18.627Z,10.40
2018-10-16T06:39:23.201Z,9.10
2018-10-16T06:41:26.175Z,9.30
2018-10-16T06:43:29.144Z,9.13
2018-10-16T06:45:32.963Z,8.63
2018-10-16T06:47:35.972Z,8.33
2018-10-16T06:49:39.571Z,9.10
2018-10-16T06:51:42.476Z,9.67
2018-10-16T06:53:45.400Z,8.10
2018-10-16T06:55:48.941Z,9.07
2018-10-16T06:57:51.818Z,8.43
2018-10-16T06:59:54.722Z,8.97
2018-10-16T07:01:57.633Z,11.67
2018-10-16T07:04:01.580Z,9.70
2018-10-16T07:06:04.521Z,9.53
2018-10-16T07:08:08.858Z,10.07
2018-10-16T07:10:11.794Z,8.60
2018-10-16T07:12:16.095Z,10.33
2018-10-16T07:14:31.683Z,10.88
2018-10-16T07:16:34.565Z,9.43
2018-10-16T07:18:38.377Z,9.90
2018-10-16T07:20:42.045Z,10.53
2018-10-16T07:22:46.073Z,10.00
2018-10-16T07:24:49.881Z,9.67
2018-10-16T07:26:53.906Z,10.47
2018-10-16T07:28:57.569Z,10.50
2018-10-16T07:31:02.010Z,10.23
2018-10-16T07:33:05.008Z,11.30
2018-10-16T07:35:07.906Z,10.20
2018-10-16T07:37:10.921Z,10.37
2018-10-16T07:39:13.814Z,10.57
2018-10-16T07:41:16.733Z,11.03
2018-10-16T07:43:20.507Z,9.70
2018-10-16T07:45:25.186Z,11.10
2018-10-16T07:47:28.098Z,11.20
2018-10-16T07:49:31.028Z,10.80
2018-10-16T07:51:33.933Z,9.53
2018-10-16T07:53:36.830Z,10.80
2018-10-16T07:55:39.942Z,10.10
2018-10-16T07:57:42.921Z,11.03
2018-10-16T07:59:45.840Z,12.07
2018-10-16T08:01:49.540Z,11.53
2018-10-16T08:03:52.468Z,11.60
2018-10-16T08:05:55.362Z,11.50
2018-10-16T08:07:58.298Z,12.53
2018-10-16T08:10:01.214Z,12.70
2018-10-16T08:12:04.149Z,12.40
2018-10-16T08:14:07.818Z,11.87
2018-10-16T08:16:11.486Z,12.23
2018-10-16T08:18:14.372Z,11.73
2018-10-16T08:20:17.314Z,11.30
2018-10-16T08:22:20.814Z,12.13
2018-10-16T08:24:23.734Z,12.43
2018-10-16T08:26:26.837Z,13.67
2018-10-16T08:28:29.751Z,12.03
2018-10-16T08:30:33.298Z,12.93
2018-10-16T08:32:36.198Z,10.80
2018-10-16T08:34:39.857Z,12.40
2018-10-16T08:36:42.869Z,11.20
2018-10-16T08:38:45.659Z,11.67
2018-10-16T08:40:49.370Z,14.03
2018-10-16T08:42:53.021Z,11.20
2018-10-16T08:44:56.071Z,11.40
2018-10-16T08:47:22.415Z,11.87
2018-10-16T08:49:38.465Z,11.23
2018-10-16T08:51:43.080Z,12.50
2018-10-16T08:53:46.014Z,11.53
2018-10-16T08:55:48.906Z,11.80
2018-10-16T08:57:51.834Z,11.10
2018-10-16T08:59:55.503Z,11.10
2018-10-16T09:01:58.417Z,10.00
2018-10-16T09:04:02.097Z,11.10
2018-10-16T09:06:05.023Z,11.97
2018-10-16T09:08:10.711Z,12.45
2018-10-16T09:10:14.639Z,10.83
2018-10-16T09:12:19.033Z,11.30
2018-10-16T09:14:21.945Z,10.50
2018-10-16T09:16:25.029Z,11.77
2018-10-16T09:18:29.848Z,10.80
2018-10-16T09:20:33.509Z,11.00
2018-10-16T09:22:36.951Z,10.67
2018-10-16T09:24:39.910Z,10.90
2018-10-16T09:26:42.940Z,12.27
2018-10-16T09:28:46.618Z,9.73
2018-10-16T09:30:51.099Z,10.17
2018-10-16T09:32:53.915Z,10.30
2018-10-16T09:34:57.817Z,10.13
2018-10-16T09:37:01.486Z,9.70
2018-10-16T09:39:04.384Z,11.37
2018-10-16T09:41:07.596Z,9.90
2018-10-16T09:43:11.977Z,10.20
2018-10-16T09:45:14.858Z,10.20
2018-10-16T09:47:17.794Z,10.63
2018-10-16T09:49:20.755Z,10.27
2018-10-16T09:51:23.622Z,9.00
2018-10-16T09:53:26.537Z,9.37
2018-10-16T09:55:29.437Z,11.27
2018-10-16T09:57:32.398Z,9.77
2018-10-16T09:59:36.174Z,10.47
2018-10-16T10:01:42.693Z,9.90
2018-10-16T10:03:46.401Z,11.67
2018-10-16T10:05:49.330Z,11.50
2018-10-16T10:07:52.991Z,9.40
2018-10-16T10:09:55.878Z,10.40
2018-10-16T10:11:58.790Z,11.20
2018-10-16T10:14:02.447Z,10.80
2018-10-16T10:16:05.365Z,10.60
2018-10-16T10:18:09.165Z,11.60
2018-10-16T10:20:13.433Z,11.10
2018-10-16T10:22:16.582Z,11.73
2018-10-16T10:24:19.549Z,10.00
2018-10-16T10:26:23.223Z,10.87
2018-10-16T10:28:26.114Z,10.60
2018-10-16T10:30:30.595Z,9.50
2018-10-16T10:32:34.015Z,10.70
2018-10-16T10:34:36.906Z,11.23
2018-10-16T10:36:41.354Z,9.40
2018-10-16T10:38:45.029Z,10.63
2018-10-16T10:40:49.480Z,9.90
2018-10-16T10:42:53.876Z,10.10
2018-10-16T10:44:56.822Z,9.63
2018-10-16T10:47:00.592Z,10.40
2018-10-16T10:49:03.542Z,10.40
2018-10-16T10:51:07.448Z,8.70
2018-10-16T10:53:10.101Z,9.30
2018-10-16T10:55:13.024Z,7.93
2018-10-16T10:57:15.975Z,9.57
2018-10-16T10:59:18.848Z,8.63
2018-10-16T11:01:23.290Z,8.73
2018-10-16T11:03:27.132Z,8.93
2018-10-16T11:05:30.685Z,7.57
2018-10-16T11:07:33.607Z,8.23
2018-10-16T11:09:36.806Z,8.87
2018-10-16T11:11:40.497Z,8.13
2018-10-16T11:13:43.439Z,8.07
2018-10-16T11:15:47.129Z,7.70
2018-10-16T11:17:50.794Z,8.20
2018-10-16T11:19:53.822Z,9.13
2018-10-16T11:21:56.690Z,8.00
2018-10-16T11:23:59.600Z,6.67
2018-10-16T11:26:02.517Z,7.50
2018-10-16T11:28:05.465Z,7.20
2018-10-16T11:30:09.139Z,7.50
2018-10-16T11:32:12.025Z,8.47
2018-10-16T11:34:15.695Z,6.27
2018-10-16T11:36:19.002Z,7.03
2018-10-16T11:38:23.445Z,7.23
2018-10-16T11:40:27.110Z,7.00
2018-10-16T11:42:30.145Z,6.30
2018-10-16T11:44:33.090Z,6.07
2018-10-16T11:46:36.742Z,7.00
2018-10-16T11:48:39.642Z,6.30
2018-10-16T11:50:42.754Z,6.20
2018-10-16T11:52:45.637Z,6.37
2018-10-16T11:54:49.302Z,6.40
2018-10-16T11:56:52.314Z,6.17
2018-10-16T11:58:55.598Z,5.23
2018-10-16T12:00:58.484Z,6.20
2018-10-16T12:03:01.397Z,6.00
2018-10-16T12:05:05.047Z,6.20
2018-10-16T12:07:08.034Z,5.97
2018-10-16T12:09:11.665Z,6.13
2018-10-16T12:11:14.615Z,6.20
2018-10-16T12:13:18.183Z,5.10
2018-10-16T12:15:21.130Z,5.90
2018-10-16T12:17:23.992Z,5.73
2018-10-16T12:19:26.912Z,6.00
2018-10-16T12:21:30.686Z,6.80
2018-10-16T12:23:34.407Z,7.37
2018-10-16T12:25:37.238Z,9.00
2018-10-16T12:27:40.138Z,12.17
2018-10-16T12:29:43.630Z,6.20
2018-10-16T12:31:46.539Z,5.80
2018-10-16T12:33:50.215Z,5.80
2018-10-16T12:35:53.890Z,5.90
2018-10-16T12:37:57.511Z,6.70
2018-10-16T12:40:00.514Z,6.20
2018-10-16T12:42:03.418Z,5.73
2018-10-16T12:44:06.247Z,5.65
2018-10-16T12:46:09.252Z,6.50
2018-10-16T12:48:12.151Z,6.50
2018-10-16T12:50:16.407Z,6.73
2018-10-16T12:52:19.310Z,6.27
2018-10-16T12:54:22.977Z,5.47
2018-10-16T12:56:25.872Z,5.97
2018-10-16T12:58:28.850Z,5.80
2018-10-16T13:00:31.733Z,5.40
2018-10-16T13:02:34.667Z,5.27
2018-10-16T13:04:38.317Z,6.50
2018-10-16T13:06:41.199Z,5.53
2018-10-16T13:08:44.093Z,5.73
2018-10-16T13:10:47.042Z,5.83
2018-10-16T13:12:49.945Z,5.47
2018-10-16T13:14:52.838Z,6.27
2018-10-16T13:16:56.562Z,6.43
2018-10-16T13:18:59.732Z,5.33
2018-10-16T13:21:03.408Z,6.53
2018-10-16T13:23:07.528Z,5.43
2018-10-16T13:25:11.240Z,5.67
2018-10-16T13:27:14.097Z,4.93
2018-10-16T13:29:17.336Z,5.80
2018-10-16T13:31:20.923Z,5.17
2018-10-16T13:33:24.596Z,4.70
2018-10-16T13:35:27.618Z,5.10
2018-10-16T13:37:31.255Z,5.30
2018-10-16T13:39:34.162Z,4.70
2018-10-16T13:41:37.083Z,4.50
2018-10-16T13:43:40.729Z,4.47
2018-10-16T13:45:43.666Z,4.37
2018-10-16T13:47:46.712Z,3.80
2018-10-16T13:49:49.591Z,4.40
2018-10-16T13:51:53.240Z,4.03
2018-10-16T13:53:56.170Z,4.60
2018-10-16T13:55:59.065Z,4.30
2018-10-16T13:58:02.150Z,4.47
2018-10-16T14:00:05.011Z,4.93
2018-10-16T14:02:07.960Z,4.63
2018-10-16T14:04:12.796Z,5.03
2018-10-16T14:06:16.156Z,4.43
2018-10-16T14:08:19.136Z,5.00
2018-10-16T14:10:22.769Z,5.20
2018-10-16T14:12:25.786Z,4.70
2018-10-16T14:14:28.694Z,4.73
2018-10-16T14:16:32.506Z,5.07
2018-10-16T14:18:36.277Z,4.63
2018-10-16T14:20:40.704Z,5.17
2018-10-16T14:22:44.525Z,5.20
2018-10-16T14:24:47.681Z,4.70
2018-10-16T14:26:51.335Z,4.90
2018-10-16T14:28:54.650Z,5.03
2018-10-16T14:30:57.738Z,4.43
2018-10-16T14:33:00.623Z,5.00
2018-10-16T14:35:03.614Z,5.00
2018-10-16T14:37:06.698Z,4.90
2018-10-16T14:39:09.579Z,5.17
2018-10-16T14:41:12.461Z,4.63
2018-10-16T14:43:15.401Z,4.50
2018-10-16T14:45:18.330Z,4.70
2018-10-16T14:47:21.216Z,4.60
2018-10-16T14:49:24.330Z,4.27
2018-10-16T14:51:28.350Z,4.40
2018-10-16T14:53:31.238Z,4.67
2018-10-16T14:55:34.367Z,4.10
2018-10-16T14:57:37.319Z,4.60
2018-10-16T14:59:40.123Z,4.37
2018-10-16T15:01:43.025Z,3.90
2018-10-16T15:03:46.711Z,4.33
2018-10-16T15:05:49.690Z,3.83
2018-10-16T15:07:52.663Z,4.80
2018-10-16T15:09:55.603Z,4.10
2018-10-16T15:11:59.214Z,3.30
2018-10-16T15:14:02.135Z,3.90
2018-10-16T15:16:05.078Z,4.40
2018-10-16T15:18:07.899Z,4.60
2018-10-16T15:20:10.916Z,3.90
2018-10-16T15:22:14.562Z,4.07
2018-10-16T15:24:18.212Z,4.27
2018-10-16T15:26:21.166Z,3.70
2018-10-16T15:28:24.791Z,3.70
2018-10-16T15:30:28.430Z,4.60
2018-10-16T15:32:31.445Z,4.00
2018-10-16T15:34:34.321Z,4.60
2018-10-16T15:36:37.206Z,4.20
2018-10-16T15:38:40.114Z,3.87
2018-10-16T15:40:43.790Z,4.63
2018-10-16T15:42:46.668Z,4.00
2018-10-16T15:44:50.573Z,4.20
2018-10-16T15:46:53.558Z,4.23
2018-10-16T15:48:57.323Z,4.10
2018-10-16T15:51:01.053Z,4.50
2018-10-16T15:53:04.774Z,4.03
2018-10-16T15:55:08.421Z,4.17
2018-10-16T15:57:11.329Z,4.10
2018-10-16T15:59:29.096Z,3.97
2018-10-16T16:03:46.463Z,4.10
2018-10-16T16:13:45.856Z,3.80
2018-10-16T16:23:47.956Z,3.70
2018-10-16T16:33:46.792Z,4.27
2018-10-16T16:43:47.739Z,4.33
2018-10-16T16:46:05.568Z,4.80
2018-10-16T16:48:24.795Z,4.70
2018-10-16T16:53:48.713Z,4.70
2018-10-16T17:03:47.768Z,4.10
2018-10-16T17:08:19.392Z,4.82
2018-10-16T17:10:22.306Z,5.10
2018-10-16T17:12:25.999Z,4.83
2018-10-16T17:14:29.662Z,4.97
2018-10-16T17:16:32.569Z,5.83
2018-10-16T17:18:36.259Z,5.27
2018-10-16T17:20:39.806Z,5.30
2018-10-16T17:22:43.322Z,5.43
2018-10-16T17:24:46.400Z,6.40
2018-10-16T17:26:49.216Z,5.83
2018-10-16T17:28:52.120Z,5.20
2018-10-16T17:30:55.758Z,6.10
2018-10-16T17:32:58.704Z,6.90
2018-10-16T17:35:02.376Z,6.80
2018-10-16T17:37:06.785Z,5.83
2018-10-16T17:39:09.800Z,6.90
2018-10-16T17:41:12.651Z,5.57
2018-10-16T17:43:15.526Z,5.97
2018-10-16T17:45:19.508Z,6.40
2018-10-16T17:47:22.560Z,6.27
2018-10-16T17:49:26.196Z,5.93
2018-10-16T17:51:29.083Z,5.93
2018-10-16T17:53:32.473Z,6.13
2018-10-16T17:55:35.579Z,6.33
2018-10-16T17:57:38.975Z,6.03
2018-10-16T17:59:42.574Z,5.80
2018-10-16T18:01:46.323Z,5.30
2018-10-16T18:03:49.531Z,7.63
2018-10-16T18:05:52.481Z,6.00
2018-10-16T18:07:55.366Z,5.83
2018-10-16T18:09:58.382Z,5.35
2018-10-16T18:12:01.507Z,7.20
2018-10-16T18:14:05.156Z,5.20
2018-10-16T18:16:08.042Z,4.90
2018-10-16T18:18:11.006Z,5.60
2018-10-16T18:20:13.854Z,5.77
2018-10-16T18:22:17.546Z,6.40
2018-10-16T18:24:21.983Z,6.03
2018-10-16T18:26:24.888Z,6.07
2018-10-16T18:28:27.801Z,6.70
2018-10-16T18:30:30.902Z,6.57
2018-10-16T18:32:34.571Z,6.70
2018-10-16T18:34:37.466Z,9.13
2018-10-16T18:36:40.596Z,7.50
2018-10-16T18:38:44.246Z,6.93
2018-10-16T18:40:47.132Z,6.23
2018-10-16T18:42:50.070Z,5.33
2018-10-16T18:44:53.107Z,6.27
2018-10-16T18:46:55.982Z,5.90
2018-10-16T18:49:00.420Z,5.67
2018-10-16T18:51:03.412Z,6.67
2018-10-16T18:53:07.108Z,7.03
2018-10-16T18:55:10.775Z,7.70
2018-10-16T18:57:14.523Z,6.70
2018-10-16T18:59:18.054Z,6.00
2018-10-16T19:01:21.050Z,6.43
2018-10-16T19:03:24.466Z,6.27
2018-10-16T19:05:28.914Z,5.70
2018-10-16T19:07:32.563Z,5.80
2018-10-16T19:09:35.459Z,5.33
2018-10-16T19:11:38.358Z,7.03
2018-10-16T19:13:42.394Z,6.27
2018-10-16T19:15:46.771Z,5.63
2018-10-16T19:17:50.422Z,5.20
2018-10-16T19:19:53.457Z,6.17
2018-10-16T19:21:56.354Z,5.30
2018-10-16T19:24:00.275Z,6.33
2018-10-16T19:26:04.035Z,7.20
2018-10-16T19:28:08.445Z,5.87
2018-10-16T19:30:11.406Z,6.63
2018-10-16T19:32:14.311Z,6.93
2018-10-16T19:34:18.717Z,7.13
2018-10-16T19:36:21.628Z,7.60
2018-10-16T19:38:24.701Z,6.80
2018-10-16T19:40:27.687Z,6.97
2018-10-16T19:42:31.346Z,6.60
2018-10-16T19:44:34.385Z,6.40
2018-10-16T19:46:38.059Z,6.90
2018-10-16T19:48:40.945Z,7.50
2018-10-16T19:50:45.814Z,7.37
2018-10-16T19:52:49.450Z,6.80
2018-10-16T19:54:52.331Z,6.83
2018-10-16T19:56:55.337Z,7.07
2018-10-16T19:58:58.283Z,6.97
2018-10-16T20:01:02.022Z,8.03
2018-10-16T20:03:05.126Z,8.07
2018-10-16T20:05:08.761Z,7.10
2018-10-16T20:07:12.507Z,8.50
2018-10-16T20:09:16.330Z,7.97
2018-10-16T20:11:19.154Z,8.37
2018-10-16T20:13:22.038Z,7.63
2018-10-16T20:15:24.979Z,7.50
2018-10-16T20:17:27.830Z,7.00
2018-10-16T20:19:30.732Z,8.10
2018-10-16T20:21:34.410Z,7.97
2018-10-16T20:23:37.498Z,7.90
2018-10-16T20:25:40.392Z,7.80
2018-10-16T20:27:44.069Z,7.50
2018-10-16T20:29:46.958Z,7.37
2018-10-16T20:31:49.851Z,6.53
2018-10-16T20:33:53.542Z,6.60
2018-10-16T20:35:57.269Z,6.93
2018-10-16T20:38:00.922Z,6.90
2018-10-16T20:40:03.846Z,6.70
2018-10-16T20:42:06.811Z,7.00
2018-10-16T20:44:09.652Z,7.00
2018-10-16T20:46:12.778Z,7.20
2018-10-16T20:48:16.089Z,7.03
2018-10-16T20:50:19.726Z,7.20
2018-10-16T20:52:22.736Z,7.90
2018-10-16T20:54:25.617Z,7.37
2018-10-16T20:56:28.514Z,7.23
2018-10-16T20:58:32.338Z,7.00
2018-10-16T21:00:35.983Z,6.70
2018-10-16T21:02:38.862Z,6.90
2018-10-16T21:04:42.071Z,8.60
2018-10-16T21:06:46.334Z,6.60
2018-10-16T21:08:48.945Z,6.67
2018-10-16T21:10:53.481Z,8.63
2018-10-16T21:12:57.169Z,7.87
2018-10-16T21:15:00.550Z,7.90
2018-10-16T21:17:03.565Z,7.03
2018-10-16T21:19:07.307Z,8.00
2018-10-16T21:21:12.037Z,28.27
2018-10-16T21:23:15.070Z,17.03
2018-10-16T21:25:18.702Z,11.00
2018-10-16T21:27:21.585Z,8.93
2018-10-16T21:29:24.641Z,7.70
2018-10-16T21:31:28.804Z,7.70
2018-10-16T21:33:31.685Z,8.40
2018-10-16T21:35:34.847Z,7.30
2018-10-16T21:37:38.469Z,7.73
2018-10-16T21:39:41.965Z,8.93
2018-10-16T21:41:45.694Z,7.60
2018-10-16T21:43:48.683Z,8.10
2018-10-16T21:45:53.408Z,7.67
2018-10-16T21:47:56.310Z,7.20
2018-10-16T21:49:59.949Z,7.67
2018-10-16T21:52:02.844Z,7.50
2018-10-16T21:54:05.746Z,8.07
2018-10-16T21:56:08.643Z,7.70
2018-10-16T21:58:12.325Z,8.33
2018-10-16T22:00:15.469Z,8.77
2018-10-16T22:02:18.348Z,7.13
2018-10-16T22:04:21.229Z,8.27
2018-10-16T22:06:24.191Z,7.80
2018-10-16T22:08:27.066Z,8.23
2018-10-16T22:10:30.734Z,7.97
2018-10-16T22:12:33.665Z,8.00
2018-10-16T22:14:36.537Z,8.20
2018-10-16T22:16:39.411Z,8.20
2018-10-16T22:18:42.330Z,8.00
2018-10-16T22:20:45.241Z,9.23
2018-10-16T22:22:48.137Z,8.70
2018-10-16T22:24:51.145Z,9.03
2018-10-16T22:26:54.797Z,8.47
2018-10-16T22:28:57.765Z,8.20
2018-10-16T22:31:00.719Z,7.70
2018-10-16T22:33:04.354Z,8.60
2018-10-16T22:35:07.310Z,7.47
2018-10-16T22:37:11.854Z,8.27
2018-10-16T22:39:15.437Z,7.73
2018-10-16T22:41:18.330Z,8.80
2018-10-16T22:43:21.249Z,7.70
2018-10-16T22:45:24.897Z,8.70
2018-10-16T22:47:28.325Z,8.17
2018-10-16T22:49:32.857Z,9.17
2018-10-16T22:51:36.505Z,8.80
2018-10-16T22:53:39.378Z,8.70
2018-10-16T22:55:42.305Z,8.93
2018-10-16T22:57:47.206Z,8.50
2018-10-16T22:59:50.285Z,8.10
2018-10-16T23:01:53.848Z,8.90
2018-10-16T23:03:57.883Z,9.00
2018-10-16T23:06:00.858Z,8.65
2018-10-16T23:08:03.770Z,8.17
2018-10-16T23:10:06.661Z,8.80
2018-10-16T23:12:09.544Z,10.67
2018-10-16T23:14:13.337Z,9.97
2018-10-16T23:16:18.269Z,9.00
2018-10-16T23:18:21.185Z,9.63
2018-10-16T23:20:24.964Z,9.00
2018-10-16T23:22:27.833Z,8.80
2018-10-16T23:24:30.712Z,8.10
2018-10-16T23:26:33.634Z,8.33
2018-10-16T23:28:36.513Z,9.03
2018-10-16T23:30:39.503Z,8.63
2018-10-16T23:32:43.789Z,8.80
2018-10-16T23:34:46.667Z,8.10
2018-10-16T23:36:51.099Z,8.60
2018-10-16T23:38:54.265Z,7.93
2018-10-16T23:40:57.175Z,8.20
2018-10-16T23:43:01.659Z,7.37
2018-10-16T23:45:04.737Z,7.95
2018-10-16T23:47:07.666Z,9.80
2018-10-16T23:49:12.132Z,8.60
2018-10-16T23:51:14.967Z,10.03
2018-10-16T23:53:17.964Z,9.47
2018-10-16T23:55:20.910Z,8.50
2018-10-16T23:57:24.597Z,8.47
2018-10-16T23:59:29.114Z,7.93
